sensor_id;sensor_type;location;lat;lon;timestamp;P1;durP1;ratioP1;P2;durP2;ratioP2
37777;SDS011;23615;51.506;7.678;2023-04-24T00:02:01;0.50;;;0.10;;
37777;SDS011;23615;51.506;7.678;2023-04-24T00:04:26;0.07;;;0.07;;
37777;SDS011;23615;51.506;7.678;2023-04-24T00:06:51;0.10;;;0.10;;
37777;SDS011;23615;51.506;7.678;2023-04-24T00:09:21;0.25;;;0.10;;
37777;SDS011;23615;51.506;7.678;2023-04-24T00:11:47;0.60;;;0.10;;
37777;SDS011;23615;51.506;7.678;2023-04-24T00:14:12;0.00;;;0.00;;
37777;SDS011;23615;51.506;7.678;2023-04-24T00:16:37;0.20;;;0.00;;
37777;SDS011;23615;51.506;7.678;2023-04-24T00:19:03;0.90;;;0.00;;
37777;SDS011;23615;51.506;7.678;2023-04-24T00:21:28;0.80;;;0.10;;
37777;SDS011;23615;51.506;7.678;2023-04-24T00:23:53;0.10;;;0.10;;
37777;SDS011;23615;51.506;7.678;2023-04-24T00:26:19;0.13;;;0.00;;
37777;SDS011;23615;51.506;7.678;2023-04-24T00:28:44;0.80;;;0.00;;
37777;SDS011;23615;51.506;7.678;2023-04-24T00:31:09;0.10;;;0.10;;
37777;SDS011;23615;51.506;7.678;2023-04-24T00:33:34;0.50;;;0.10;;
37777;SDS011;23615;51.506;7.678;2023-04-24T00:36:00;0.30;;;0.10;;
37777;SDS011;23615;51.506;7.678;2023-04-24T00:38:25;0.50;;;0.10;;
37777;SDS011;23615;51.506;7.678;2023-04-24T00:40:50;0.10;;;0.10;;
37777;SDS011;23615;51.506;7.678;2023-04-24T00:43:16;0.10;;;0.10;;
37777;SDS011;23615;51.506;7.678;2023-04-24T00:45:42;0.40;;;0.00;;
37777;SDS011;23615;51.506;7.678;2023-04-24T00:48:08;1.00;;;0.30;;
37777;SDS011;23615;51.506;7.678;2023-04-24T00:50:35;2.00;;;0.40;;
37777;SDS011;23615;51.506;7.678;2023-04-24T00:53:01;0.30;;;0.10;;
37777;SDS011;23615;51.506;7.678;2023-04-24T00:55:26;0.20;;;0.10;;
37777;SDS011;23615;51.506;7.678;2023-04-24T00:57:52;0.20;;;0.20;;
37777;SDS011;23615;51.506;7.678;2023-04-24T01:00:17;0.10;;;0.10;;
37777;SDS011;23615;51.506;7.678;2023-04-24T01:02:44;0.50;;;0.20;;
37777;SDS011;23615;51.506;7.678;2023-04-24T01:05:11;0.80;;;0.10;;
37777;SDS011;23615;51.506;7.678;2023-04-24T01:07:38;0.10;;;0.10;;
37777;SDS011;23615;51.506;7.678;2023-04-24T01:10:06;0.35;;;0.13;;
37777;SDS011;23615;51.506;7.678;2023-04-24T01:12:32;0.90;;;0.20;;
37777;SDS011;23615;51.506;7.678;2023-04-24T01:14:58;0.53;;;0.20;;
37777;SDS011;23615;51.506;7.678;2023-04-24T01:17:23;0.60;;;0.10;;
37777;SDS011;23615;51.506;7.678;2023-04-24T01:19:48;0.10;;;0.10;;
37777;SDS011;23615;51.506;7.678;2023-04-24T01:22:14;0.10;;;0.10;;
37777;SDS011;23615;51.506;7.678;2023-04-24T01:24:40;0.30;;;0.10;;
37777;SDS011;23615;51.506;7.678;2023-04-24T01:27:06;0.30;;;0.10;;
37777;SDS011;23615;51.506;7.678;2023-04-24T01:29:33;0.10;;;0.10;;
37777;SDS011;23615;51.506;7.678;2023-04-24T01:31:59;0.73;;;0.17;;
37777;SDS011;23615;51.506;7.678;2023-04-24T01:34:25;0.38;;;0.10;;
37777;SDS011;23615;51.506;7.678;2023-04-24T01:36:51;0.10;;;0.10;;
37777;SDS011;23615;51.506;7.678;2023-04-24T01:39:16;0.37;;;0.10;;
37777;SDS011;23615;51.506;7.678;2023-04-24T01:41:41;0.10;;;0.10;;
37777;SDS011;23615;51.506;7.678;2023-04-24T01:44:07;0.20;;;0.13;;
37777;SDS011;23615;51.506;7.678;2023-04-24T01:46:33;0.60;;;0.10;;
37777;SDS011;23615;51.506;7.678;2023-04-24T01:48:59;0.70;;;0.20;;
37777;SDS011;23615;51.506;7.678;2023-04-24T01:51:25;0.50;;;0.13;;
37777;SDS011;23615;51.506;7.678;2023-04-24T01:53:50;1.23;;;0.10;;
37777;SDS011;23615;51.506;7.678;2023-04-24T01:56:16;0.40;;;0.20;;
37777;SDS011;23615;51.506;7.678;2023-04-24T01:58:41;1.20;;;0.20;;
37777;SDS011;23615;51.506;7.678;2023-04-24T02:01:08;0.13;;;0.13;;
37777;SDS011;23615;51.506;7.678;2023-04-24T02:03:33;0.40;;;0.20;;
37777;SDS011;23615;51.506;7.678;2023-04-24T02:05:58;1.10;;;0.30;;
37777;SDS011;23615;51.506;7.678;2023-04-24T02:08:24;0.70;;;0.30;;
37777;SDS011;23615;51.506;7.678;2023-04-24T02:10:50;0.30;;;0.30;;
37777;SDS011;23615;51.506;7.678;2023-04-24T02:13:15;0.70;;;0.20;;
37777;SDS011;23615;51.506;7.678;2023-04-24T02:15:40;1.27;;;0.30;;
37777;SDS011;23615;51.506;7.678;2023-04-24T02:18:05;0.30;;;0.20;;
37777;SDS011;23615;51.506;7.678;2023-04-24T02:20:31;0.65;;;0.22;;
37777;SDS011;23615;51.506;7.678;2023-04-24T02:22:58;0.28;;;0.20;;
37777;SDS011;23615;51.506;7.678;2023-04-24T02:25:24;3.50;;;0.20;;
37777;SDS011;23615;51.506;7.678;2023-04-24T02:27:49;0.70;;;0.20;;
37777;SDS011;23615;51.506;7.678;2023-04-24T02:30:17;1.57;;;0.77;;
37777;SDS011;23615;51.506;7.678;2023-04-24T02:32:43;1.30;;;0.80;;
37777;SDS011;23615;51.506;7.678;2023-04-24T02:35:08;0.77;;;0.77;;
37777;SDS011;23615;51.506;7.678;2023-04-24T02:37:34;2.03;;;0.97;;
37777;SDS011;23615;51.506;7.678;2023-04-24T02:39:59;1.00;;;0.83;;
37777;SDS011;23615;51.506;7.678;2023-04-24T02:42:24;1.45;;;0.80;;
37777;SDS011;23615;51.506;7.678;2023-04-24T02:44:50;2.63;;;1.30;;
37777;SDS011;23615;51.506;7.678;2023-04-24T02:47:16;1.95;;;1.00;;
37777;SDS011;23615;51.506;7.678;2023-04-24T02:49:41;1.10;;;0.90;;
37777;SDS011;23615;51.506;7.678;2023-04-24T02:52:06;1.63;;;0.83;;
37777;SDS011;23615;51.506;7.678;2023-04-24T02:54:32;1.60;;;1.40;;
37777;SDS011;23615;51.506;7.678;2023-04-24T02:56:57;1.77;;;1.10;;
37777;SDS011;23615;51.506;7.678;2023-04-24T02:59:22;1.42;;;1.15;;
37777;SDS011;23615;51.506;7.678;2023-04-24T03:01:48;1.40;;;1.30;;
37777;SDS011;23615;51.506;7.678;2023-04-24T03:04:13;2.37;;;1.47;;
37777;SDS011;23615;51.506;7.678;2023-04-24T03:06:38;1.40;;;1.30;;
37777;SDS011;23615;51.506;7.678;2023-04-24T03:09:04;2.00;;;1.07;;
37777;SDS011;23615;51.506;7.678;2023-04-24T03:11:29;1.67;;;1.40;;
37777;SDS011;23615;51.506;7.678;2023-04-24T03:13:54;2.57;;;1.30;;
37777;SDS011;23615;51.506;7.678;2023-04-24T03:16:20;1.57;;;1.43;;
37777;SDS011;23615;51.506;7.678;2023-04-24T03:18:45;2.25;;;1.58;;
37777;SDS011;23615;51.506;7.678;2023-04-24T03:21:11;1.70;;;1.50;;
37777;SDS011;23615;51.506;7.678;2023-04-24T03:23:36;2.85;;;2.55;;
37777;SDS011;23615;51.506;7.678;2023-04-24T03:26:01;5.00;;;4.13;;
37777;SDS011;23615;51.506;7.678;2023-04-24T03:28:27;5.68;;;4.35;;
37777;SDS011;23615;51.506;7.678;2023-04-24T03:30:52;5.33;;;4.87;;
37777;SDS011;23615;51.506;7.678;2023-04-24T03:33:17;6.67;;;5.97;;
37777;SDS011;23615;51.506;7.678;2023-04-24T03:35:43;6.57;;;5.97;;
37777;SDS011;23615;51.506;7.678;2023-04-24T03:38:08;6.10;;;5.50;;
37777;SDS011;23615;51.506;7.678;2023-04-24T03:40:33;8.03;;;6.53;;
37777;SDS011;23615;51.506;7.678;2023-04-24T03:42:58;7.43;;;6.63;;
37777;SDS011;23615;51.506;7.678;2023-04-24T03:45:24;8.30;;;7.40;;
37777;SDS011;23615;51.506;7.678;2023-04-24T03:47:49;8.53;;;7.63;;
37777;SDS011;23615;51.506;7.678;2023-04-24T03:50:15;9.13;;;8.23;;
37777;SDS011;23615;51.506;7.678;2023-04-24T03:52:40;8.50;;;7.60;;
37777;SDS011;23615;51.506;7.678;2023-04-24T03:55:05;7.25;;;6.53;;
37777;SDS011;23615;51.506;7.678;2023-04-24T03:57:31;7.45;;;6.60;;
37777;SDS011;23615;51.506;7.678;2023-04-24T03:59:57;7.20;;;6.50;;
37777;SDS011;23615;51.506;7.678;2023-04-24T04:02:22;7.70;;;6.93;;
37777;SDS011;23615;51.506;7.678;2023-04-24T04:04:47;7.17;;;6.47;;
37777;SDS011;23615;51.506;7.678;2023-04-24T04:07:12;8.45;;;7.10;;
37777;SDS011;23615;51.506;7.678;2023-04-24T04:09:38;9.38;;;7.22;;
37777;SDS011;23615;51.506;7.678;2023-04-24T04:12:03;7.28;;;5.72;;
37777;SDS011;23615;51.506;7.678;2023-04-24T04:14:29;7.68;;;6.88;;
37777;SDS011;23615;51.506;7.678;2023-04-24T04:16:54;7.45;;;6.75;;
37777;SDS011;23615;51.506;7.678;2023-04-24T04:19:19;9.23;;;7.70;;
37777;SDS011;23615;51.506;7.678;2023-04-24T04:21:45;8.80;;;7.30;;
37777;SDS011;23615;51.506;7.678;2023-04-24T04:24:10;7.40;;;6.27;;
37777;SDS011;23615;51.506;7.678;2023-04-24T04:26:36;9.00;;;7.72;;
37777;SDS011;23615;51.506;7.678;2023-04-24T04:29:02;10.35;;;7.28;;
37777;SDS011;23615;51.506;7.678;2023-04-24T04:31:28;7.85;;;7.05;;
37777;SDS011;23615;51.506;7.678;2023-04-24T04:33:54;7.70;;;6.90;;
37777;SDS011;23615;51.506;7.678;2023-04-24T04:36:19;7.60;;;6.73;;
37777;SDS011;23615;51.506;7.678;2023-04-24T04:38:44;8.00;;;6.23;;
37777;SDS011;23615;51.506;7.678;2023-04-24T04:41:10;8.10;;;6.63;;
37777;SDS011;23615;51.506;7.678;2023-04-24T04:43:35;7.03;;;6.33;;
37777;SDS011;23615;51.506;7.678;2023-04-24T04:46:01;8.87;;;7.27;;
37777;SDS011;23615;51.506;7.678;2023-04-24T04:48:28;9.10;;;6.93;;
37777;SDS011;23615;51.506;7.678;2023-04-24T04:50:53;8.53;;;6.57;;
37777;SDS011;23615;51.506;7.678;2023-04-24T04:53:19;8.13;;;6.80;;
37777;SDS011;23615;51.506;7.678;2023-04-24T04:55:44;8.13;;;7.10;;
37777;SDS011;23615;51.506;7.678;2023-04-24T04:58:11;7.25;;;6.55;;
37777;SDS011;23615;51.506;7.678;2023-04-24T05:00:36;8.10;;;7.00;;
37777;SDS011;23615;51.506;7.678;2023-04-24T05:03:02;7.28;;;6.50;;
37777;SDS011;23615;51.506;7.678;2023-04-24T05:05:27;7.50;;;6.60;;
37777;SDS011;23615;51.506;7.678;2023-04-24T05:07:53;7.07;;;6.38;;
37777;SDS011;23615;51.506;7.678;2023-04-24T05:10:18;7.40;;;6.37;;
37777;SDS011;23615;51.506;7.678;2023-04-24T05:12:44;8.30;;;6.57;;
37777;SDS011;23615;51.506;7.678;2023-04-24T05:15:09;9.00;;;7.43;;
37777;SDS011;23615;51.506;7.678;2023-04-24T05:17:35;8.80;;;7.72;;
37777;SDS011;23615;51.506;7.678;2023-04-24T05:20:01;9.40;;;8.30;;
37777;SDS011;23615;51.506;7.678;2023-04-24T05:22:30;9.82;;;7.75;;
37777;SDS011;23615;51.506;7.678;2023-04-24T05:24:55;10.40;;;8.20;;
37777;SDS011;23615;51.506;7.678;2023-04-24T05:27:21;10.90;;;8.40;;
37777;SDS011;23615;51.506;7.678;2023-04-24T05:29:46;9.03;;;8.13;;
37777;SDS011;23615;51.506;7.678;2023-04-24T05:32:11;8.67;;;7.77;;
37777;SDS011;23615;51.506;7.678;2023-04-24T05:34:36;11.30;;;8.20;;
37777;SDS011;23615;51.506;7.678;2023-04-24T05:37:02;8.35;;;7.53;;
37777;SDS011;23615;51.506;7.678;2023-04-24T05:39:28;9.20;;;7.78;;
37777;SDS011;23615;51.506;7.678;2023-04-24T05:41:53;9.10;;;7.00;;
37777;SDS011;23615;51.506;7.678;2023-04-24T05:44:18;7.77;;;6.97;;
37777;SDS011;23615;51.506;7.678;2023-04-24T05:46:44;6.73;;;5.97;;
37777;SDS011;23615;51.506;7.678;2023-04-24T05:49:09;8.00;;;5.87;;
37777;SDS011;23615;51.506;7.678;2023-04-24T05:51:34;7.22;;;5.40;;
37777;SDS011;23615;51.506;7.678;2023-04-24T05:54:00;6.47;;;5.85;;
37777;SDS011;23615;51.506;7.678;2023-04-24T05:56:26;6.82;;;5.57;;
37777;SDS011;23615;51.506;7.678;2023-04-24T05:58:51;5.43;;;4.93;;
37777;SDS011;23615;51.506;7.678;2023-04-24T06:01:16;6.23;;;5.63;;
37777;SDS011;23615;51.506;7.678;2023-04-24T06:03:43;5.82;;;5.22;;
37777;SDS011;23615;51.506;7.678;2023-04-24T06:06:08;7.23;;;5.07;;
37777;SDS011;23615;51.506;7.678;2023-04-24T06:08:34;4.67;;;4.27;;
37777;SDS011;23615;51.506;7.678;2023-04-24T06:11:00;4.57;;;4.18;;
37777;SDS011;23615;51.506;7.678;2023-04-24T06:13:25;4.40;;;4.00;;
37777;SDS011;23615;51.506;7.678;2023-04-24T06:15:50;6.37;;;4.00;;
37777;SDS011;23615;51.506;7.678;2023-04-24T06:18:18;5.03;;;4.30;;
37777;SDS011;23615;51.506;7.678;2023-04-24T06:20:43;4.80;;;4.30;;
37777;SDS011;23615;51.506;7.678;2023-04-24T06:23:10;4.90;;;4.43;;
37777;SDS011;23615;51.506;7.678;2023-04-24T06:25:35;5.43;;;4.23;;
37777;SDS011;23615;51.506;7.678;2023-04-24T06:28:00;5.13;;;4.60;;
37777;SDS011;23615;51.506;7.678;2023-04-24T06:30:27;5.28;;;4.78;;
37777;SDS011;23615;51.506;7.678;2023-04-24T06:32:53;5.13;;;4.65;;
37777;SDS011;23615;51.506;7.678;2023-04-24T06:35:18;5.23;;;4.60;;
37777;SDS011;23615;51.506;7.678;2023-04-24T06:37:43;5.27;;;4.73;;
37777;SDS011;23615;51.506;7.678;2023-04-24T06:40:09;6.80;;;4.23;;
37777;SDS011;23615;51.506;7.678;2023-04-24T06:42:35;4.38;;;3.97;;
37777;SDS011;23615;51.506;7.678;2023-04-24T06:45:01;4.43;;;3.73;;
37777;SDS011;23615;51.506;7.678;2023-04-24T06:47:26;6.28;;;3.80;;
37777;SDS011;23615;51.506;7.678;2023-04-24T06:49:52;4.20;;;3.30;;
37777;SDS011;23615;51.506;7.678;2023-04-24T06:52:18;4.05;;;3.30;;
37777;SDS011;23615;51.506;7.678;2023-04-24T06:54:43;3.43;;;3.13;;
37777;SDS011;23615;51.506;7.678;2023-04-24T06:57:09;3.53;;;3.10;;
37777;SDS011;23615;51.506;7.678;2023-04-24T06:59:35;3.20;;;2.63;;
37777;SDS011;23615;51.506;7.678;2023-04-24T07:02:00;3.70;;;3.07;;
37777;SDS011;23615;51.506;7.678;2023-04-24T07:04:26;2.70;;;2.20;;
37777;SDS011;23615;51.506;7.678;2023-04-24T07:06:51;2.07;;;1.87;;
37777;SDS011;23615;51.506;7.678;2023-04-24T07:09:19;2.27;;;1.60;;
37777;SDS011;23615;51.506;7.678;2023-04-24T07:11:45;1.45;;;1.35;;
37777;SDS011;23615;51.506;7.678;2023-04-24T07:14:10;1.60;;;1.50;;
37777;SDS011;23615;51.506;7.678;2023-04-24T07:16:37;3.65;;;2.20;;
37777;SDS011;23615;51.506;7.678;2023-04-24T07:19:02;1.97;;;1.87;;
37777;SDS011;23615;51.506;7.678;2023-04-24T07:21:27;2.00;;;1.90;;
37777;SDS011;23615;51.506;7.678;2023-04-24T07:23:53;2.63;;;2.43;;
37777;SDS011;23615;51.506;7.678;2023-04-24T07:26:18;2.23;;;1.97;;
37777;SDS011;23615;51.506;7.678;2023-04-24T07:28:44;2.33;;;2.13;;
37777;SDS011;23615;51.506;7.678;2023-04-24T07:31:10;2.37;;;2.17;;
37777;SDS011;23615;51.506;7.678;2023-04-24T07:33:36;2.70;;;2.28;;
37777;SDS011;23615;51.506;7.678;2023-04-24T07:36:02;2.70;;;1.73;;
37777;SDS011;23615;51.506;7.678;2023-04-24T07:38:29;2.97;;;2.27;;
37777;SDS011;23615;51.506;7.678;2023-04-24T07:40:55;2.60;;;2.40;;
37777;SDS011;23615;51.506;7.678;2023-04-24T07:43:20;3.03;;;2.77;;
37777;SDS011;23615;51.506;7.678;2023-04-24T07:45:46;3.30;;;3.00;;
37777;SDS011;23615;51.506;7.678;2023-04-24T07:48:11;2.97;;;2.70;;
37777;SDS011;23615;51.506;7.678;2023-04-24T07:50:39;2.80;;;2.60;;
37777;SDS011;23615;51.506;7.678;2023-04-24T07:53:05;2.30;;;1.87;;
37777;SDS011;23615;51.506;7.678;2023-04-24T07:55:30;1.80;;;1.70;;
37777;SDS011;23615;51.506;7.678;2023-04-24T07:57:58;3.58;;;1.65;;
37777;SDS011;23615;51.506;7.678;2023-04-24T08:00:24;1.80;;;1.50;;
37777;SDS011;23615;51.506;7.678;2023-04-24T08:02:49;1.70;;;1.40;;
37777;SDS011;23615;51.506;7.678;2023-04-24T08:05:14;0.97;;;0.90;;
37777;SDS011;23615;51.506;7.678;2023-04-24T08:07:40;1.03;;;0.93;;
37777;SDS011;23615;51.506;7.678;2023-04-24T08:10:07;1.20;;;0.90;;
37777;SDS011;23615;51.506;7.678;2023-04-24T08:12:34;1.00;;;0.90;;
37777;SDS011;23615;51.506;7.678;2023-04-24T08:15:00;2.33;;;1.00;;
37777;SDS011;23615;51.506;7.678;2023-04-24T08:17:25;0.60;;;0.60;;
37777;SDS011;23615;51.506;7.678;2023-04-24T08:19:50;0.50;;;0.50;;
37777;SDS011;23615;51.506;7.678;2023-04-24T08:22:18;0.90;;;0.50;;
37777;SDS011;23615;51.506;7.678;2023-04-24T08:24:43;0.80;;;0.47;;
37777;SDS011;23615;51.506;7.678;2023-04-24T08:27:08;1.95;;;0.50;;
37777;SDS011;23615;51.506;7.678;2023-04-24T08:29:35;0.45;;;0.32;;
37777;SDS011;23615;51.506;7.678;2023-04-24T08:32:00;0.60;;;0.28;;
37777;SDS011;23615;51.506;7.678;2023-04-24T08:34:25;1.00;;;0.20;;
37777;SDS011;23615;51.506;7.678;2023-04-24T08:36:51;0.20;;;0.20;;
37777;SDS011;23615;51.506;7.678;2023-04-24T08:39:16;0.20;;;0.20;;
37777;SDS011;23615;51.506;7.678;2023-04-24T08:41:42;0.20;;;0.20;;
37777;SDS011;23615;51.506;7.678;2023-04-24T08:44:08;0.67;;;0.13;;
37777;SDS011;23615;51.506;7.678;2023-04-24T08:46:34;0.50;;;0.10;;
37777;SDS011;23615;51.506;7.678;2023-04-24T08:49:01;0.20;;;0.20;;
37777;SDS011;23615;51.506;7.678;2023-04-24T08:51:27;0.60;;;0.20;;
37777;SDS011;23615;51.506;7.678;2023-04-24T08:53:53;0.43;;;0.10;;
37777;SDS011;23615;51.506;7.678;2023-04-24T08:56:20;0.20;;;0.20;;
37777;SDS011;23615;51.506;7.678;2023-04-24T08:58:48;0.40;;;0.20;;
37777;SDS011;23615;51.506;7.678;2023-04-24T09:01:15;0.30;;;0.20;;
37777;SDS011;23615;51.506;7.678;2023-04-24T09:03:41;0.30;;;0.20;;
37777;SDS011;23615;51.506;7.678;2023-04-24T09:06:07;0.10;;;0.10;;
37777;SDS011;23615;51.506;7.678;2023-04-24T09:08:34;0.32;;;0.10;;
37777;SDS011;23615;51.506;7.678;2023-04-24T09:11:01;0.30;;;0.10;;
37777;SDS011;23615;51.506;7.678;2023-04-24T09:13:28;0.80;;;0.10;;
37777;SDS011;23615;51.506;7.678;2023-04-24T09:15:55;0.13;;;0.10;;
37777;SDS011;23615;51.506;7.678;2023-04-24T09:18:22;0.10;;;0.10;;
37777;SDS011;23615;51.506;7.678;2023-04-24T09:20:58;0.60;;;0.43;;
37777;SDS011;23615;51.506;7.678;2023-04-24T09:23:31;0.30;;;0.30;;
37777;SDS011;23615;51.506;7.678;2023-04-24T09:25:57;0.60;;;0.20;;
37777;SDS011;23615;51.506;7.678;2023-04-24T09:28:26;0.80;;;0.20;;
37777;SDS011;23615;51.506;7.678;2023-04-24T09:34:04;0.30;;;0.10;;
37777;SDS011;23615;51.506;7.678;2023-04-24T09:36:36;0.10;;;0.10;;
37777;SDS011;23615;51.506;7.678;2023-04-24T09:39:04;1.00;;;0.40;;
37777;SDS011;23615;51.506;7.678;2023-04-24T09:41:32;0.40;;;0.40;;
37777;SDS011;23615;51.506;7.678;2023-04-24T09:44:10;1.20;;;0.40;;
37777;SDS011;23615;51.506;7.678;2023-04-24T09:46:37;0.40;;;0.30;;
37777;SDS011;23615;51.506;7.678;2023-04-24T09:49:09;1.93;;;0.50;;
37777;SDS011;23615;51.506;7.678;2023-04-24T09:51:36;2.33;;;0.75;;
37777;SDS011;23615;51.506;7.678;2023-04-24T09:54:03;1.02;;;0.40;;
37777;SDS011;23615;51.506;7.678;2023-04-24T09:56:50;3.45;;;0.90;;
37777;SDS011;23615;51.506;7.678;2023-04-24T09:59:16;1.20;;;0.70;;
37777;SDS011;23615;51.506;7.678;2023-04-24T10:01:43;0.80;;;0.30;;
37777;SDS011;23615;51.506;7.678;2023-04-24T10:04:19;0.40;;;0.35;;
37777;SDS011;23615;51.506;7.678;2023-04-24T10:06:46;0.52;;;0.30;;
37777;SDS011;23615;51.506;7.678;2023-04-24T10:09:14;1.13;;;0.20;;
37777;SDS011;23615;51.506;7.678;2023-04-24T10:11:43;0.40;;;0.30;;
37777;SDS011;23615;51.506;7.678;2023-04-24T10:14:14;1.10;;;0.40;;
37777;SDS011;23615;51.506;7.678;2023-04-24T10:16:43;2.92;;;0.40;;
37777;SDS011;23615;51.506;7.678;2023-04-24T10:19:09;0.35;;;0.35;;
37777;SDS011;23615;51.506;7.678;2023-04-24T10:21:35;0.40;;;0.23;;
37777;SDS011;23615;51.506;7.678;2023-04-24T10:24:07;0.77;;;0.40;;
37777;SDS011;23615;51.506;7.678;2023-04-24T10:26:33;0.60;;;0.40;;
37777;SDS011;23615;51.506;7.678;2023-04-24T10:28:59;0.93;;;0.30;;
37777;SDS011;23615;51.506;7.678;2023-04-24T10:31:26;0.52;;;0.30;;
37777;SDS011;23615;51.506;7.678;2023-04-24T10:33:55;0.37;;;0.30;;
37777;SDS011;23615;51.506;7.678;2023-04-24T10:36:22;0.55;;;0.32;;
37777;SDS011;23615;51.506;7.678;2023-04-24T10:38:51;1.10;;;0.38;;
37777;SDS011;23615;51.506;7.678;2023-04-24T10:41:20;0.30;;;0.30;;
37777;SDS011;23615;51.506;7.678;2023-04-24T10:43:48;0.63;;;0.60;;
37777;SDS011;23615;51.506;7.678;2023-04-24T10:46:29;1.00;;;0.50;;
37777;SDS011;23615;51.506;7.678;2023-04-24T10:48:55;1.20;;;0.45;;
37777;SDS011;23615;51.506;7.678;2023-04-24T10:51:24;1.50;;;0.70;;
37777;SDS011;23615;51.506;7.678;2023-04-24T10:54:29;0.50;;;0.50;;
37777;SDS011;23615;51.506;7.678;2023-04-24T11:00:14;0.77;;;0.70;;
37777;SDS011;23615;51.506;7.678;2023-04-24T11:02:41;0.70;;;0.70;;
37777;SDS011;23615;51.506;7.678;2023-04-24T11:05:14;0.82;;;0.52;;
37777;SDS011;23615;51.506;7.678;2023-04-24T11:10:40;2.17;;;0.98;;
37777;SDS011;23615;51.506;7.678;2023-04-24T11:13:21;1.20;;;1.10;;
37777;SDS011;23615;51.506;7.678;2023-04-24T11:16:11;2.13;;;1.10;;
37777;SDS011;23615;51.506;7.678;2023-04-24T11:18:51;1.63;;;0.90;;
37777;SDS011;23615;51.506;7.678;2023-04-24T11:21:22;1.67;;;1.30;;
37777;SDS011;23615;51.506;7.678;2023-04-24T11:23:47;2.55;;;1.30;;
37777;SDS011;23615;51.506;7.678;2023-04-24T11:26:13;2.10;;;1.60;;
37777;SDS011;23615;51.506;7.678;2023-04-24T11:28:49;2.15;;;1.65;;
37777;SDS011;23615;51.506;7.678;2023-04-24T11:31:34;2.20;;;1.95;;
37777;SDS011;23615;51.506;7.678;2023-04-24T11:34:09;2.50;;;2.20;;
37777;SDS011;23615;51.506;7.678;2023-04-24T11:36:35;3.20;;;2.28;;
37777;SDS011;23615;51.506;7.678;2023-04-24T11:39:01;4.00;;;2.30;;
37777;SDS011;23615;51.506;7.678;2023-04-24T11:41:27;5.03;;;2.72;;
37777;SDS011;23615;51.506;7.678;2023-04-24T11:43:53;4.65;;;3.15;;
37777;SDS011;23615;51.506;7.678;2023-04-24T11:46:20;5.35;;;3.67;;
37777;SDS011;23615;51.506;7.678;2023-04-24T11:48:46;7.05;;;3.25;;
37777;SDS011;23615;51.506;7.678;2023-04-24T11:51:12;7.90;;;3.67;;
37777;SDS011;23615;51.506;7.678;2023-04-24T11:53:38;7.57;;;3.67;;
37777;SDS011;23615;51.506;7.678;2023-04-24T11:56:03;6.93;;;3.67;;
37777;SDS011;23615;51.506;7.678;2023-04-24T11:58:34;8.95;;;3.63;;
37777;SDS011;23615;51.506;7.678;2023-04-24T12:01:05;7.50;;;4.30;;
37777;SDS011;23615;51.506;7.678;2023-04-24T12:03:30;6.13;;;4.43;;
37777;SDS011;23615;51.506;7.678;2023-04-24T12:06:06;5.75;;;3.90;;
37777;SDS011;23615;51.506;7.678;2023-04-24T12:08:35;8.93;;;4.25;;
37777;SDS011;23615;51.506;7.678;2023-04-24T12:11:01;8.90;;;5.27;;
37777;SDS011;23615;51.506;7.678;2023-04-24T12:13:28;8.20;;;4.57;;
37777;SDS011;23615;51.506;7.678;2023-04-24T12:15:54;6.85;;;4.18;;
37777;SDS011;23615;51.506;7.678;2023-04-24T12:18:22;8.67;;;5.50;;
37777;SDS011;23615;51.506;7.678;2023-04-24T12:20:48;7.05;;;4.75;;
37777;SDS011;23615;51.506;7.678;2023-04-24T12:23:13;7.07;;;5.10;;
37777;SDS011;23615;51.506;7.678;2023-04-24T12:25:39;10.45;;;5.90;;
37777;SDS011;23615;51.506;7.678;2023-04-24T12:30:31;11.47;;;5.60;;
37777;SDS011;23615;51.506;7.678;2023-04-24T12:32:59;7.75;;;5.05;;
37777;SDS011;23615;51.506;7.678;2023-04-24T12:35:27;10.65;;;4.82;;
37777;SDS011;23615;51.506;7.678;2023-04-24T12:37:53;5.65;;;3.50;;
37777;SDS011;23615;51.506;7.678;2023-04-24T12:40:19;10.03;;;4.00;;
37777;SDS011;23615;51.506;7.678;2023-04-24T12:42:47;7.10;;;2.53;;
37777;SDS011;23615;51.506;7.678;2023-04-24T12:45:14;5.10;;;3.03;;
37777;SDS011;23615;51.506;7.678;2023-04-24T12:47:41;7.38;;;3.53;;
37777;SDS011;23615;51.506;7.678;2023-04-24T12:50:08;6.40;;;3.20;;
37777;SDS011;23615;51.506;7.678;2023-04-24T12:52:35;8.73;;;3.65;;
37777;SDS011;23615;51.506;7.678;2023-04-24T12:55:00;6.90;;;3.33;;
37777;SDS011;23615;51.506;7.678;2023-04-24T12:57:27;5.90;;;2.78;;
37777;SDS011;23615;51.506;7.678;2023-04-24T12:59:54;8.13;;;3.28;;
37777;SDS011;23615;51.506;7.678;2023-04-24T13:02:21;8.15;;;3.92;;
37777;SDS011;23615;51.506;7.678;2023-04-24T13:04:47;8.88;;;3.17;;
37777;SDS011;23615;51.506;7.678;2023-04-24T13:07:13;7.30;;;3.57;;
37777;SDS011;23615;51.506;7.678;2023-04-24T13:09:39;7.10;;;2.72;;
37777;SDS011;23615;51.506;7.678;2023-04-24T13:12:05;5.68;;;2.78;;
37777;SDS011;23615;51.506;7.678;2023-04-24T13:14:31;6.10;;;3.10;;
37777;SDS011;23615;51.506;7.678;2023-04-24T13:16:56;4.93;;;2.90;;
37777;SDS011;23615;51.506;7.678;2023-04-24T13:19:24;6.20;;;3.23;;
37777;SDS011;23615;51.506;7.678;2023-04-24T13:21:50;6.72;;;3.13;;
37777;SDS011;23615;51.506;7.678;2023-04-24T13:24:16;5.40;;;2.80;;
37777;SDS011;23615;51.506;7.678;2023-04-24T13:26:42;7.82;;;3.00;;
37777;SDS011;23615;51.506;7.678;2023-04-24T13:29:07;7.50;;;3.20;;
37777;SDS011;23615;51.506;7.678;2023-04-24T13:31:32;5.23;;;2.43;;
37777;SDS011;23615;51.506;7.678;2023-04-24T13:33:58;5.33;;;2.60;;
37777;SDS011;23615;51.506;7.678;2023-04-24T13:36:23;8.40;;;5.37;;
37777;SDS011;23615;51.506;7.678;2023-04-24T13:38:48;3.57;;;2.23;;
37777;SDS011;23615;51.506;7.678;2023-04-24T13:41:14;5.57;;;2.50;;
37777;SDS011;23615;51.506;7.678;2023-04-24T13:43:39;4.23;;;2.33;;
37777;SDS011;23615;51.506;7.678;2023-04-24T13:46:06;6.35;;;2.38;;
37777;SDS011;23615;51.506;7.678;2023-04-24T13:48:32;5.38;;;1.98;;
37777;SDS011;23615;51.506;7.678;2023-04-24T13:50:57;4.20;;;1.88;;
37777;SDS011;23615;51.506;7.678;2023-04-24T13:53:22;3.27;;;2.20;;
37777;SDS011;23615;51.506;7.678;2023-04-24T13:55:47;4.20;;;2.00;;
37777;SDS011;23615;51.506;7.678;2023-04-24T13:58:13;3.57;;;2.27;;
37777;SDS011;23615;51.506;7.678;2023-04-24T14:00:39;5.00;;;2.13;;
37777;SDS011;23615;51.506;7.678;2023-04-24T14:03:05;2.50;;;2.00;;
37777;SDS011;23615;51.506;7.678;2023-04-24T14:05:31;2.60;;;2.27;;
37777;SDS011;23615;51.506;7.678;2023-04-24T14:07:56;3.10;;;1.60;;
37777;SDS011;23615;51.506;7.678;2023-04-24T14:10:21;2.50;;;1.60;;
37777;SDS011;23615;51.506;7.678;2023-04-24T14:12:47;4.23;;;1.40;;
37777;SDS011;23615;51.506;7.678;2023-04-24T14:15:13;2.40;;;1.60;;
37777;SDS011;23615;51.506;7.678;2023-04-24T14:17:38;3.10;;;1.30;;
37777;SDS011;23615;51.506;7.678;2023-04-24T14:20:04;3.03;;;1.40;;
37777;SDS011;23615;51.506;7.678;2023-04-24T14:22:30;2.78;;;1.30;;
37777;SDS011;23615;51.506;7.678;2023-04-24T14:24:55;3.22;;;1.33;;
37777;SDS011;23615;51.506;7.678;2023-04-24T14:27:21;4.23;;;1.30;;
37777;SDS011;23615;51.506;7.678;2023-04-24T14:29:46;3.20;;;1.03;;
37777;SDS011;23615;51.506;7.678;2023-04-24T14:32:11;1.30;;;0.97;;
37777;SDS011;23615;51.506;7.678;2023-04-24T14:34:39;2.53;;;0.80;;
37777;SDS011;23615;51.506;7.678;2023-04-24T14:37:05;2.23;;;0.70;;
37777;SDS011;23615;51.506;7.678;2023-04-24T14:39:30;3.80;;;0.90;;
37777;SDS011;23615;51.506;7.678;2023-04-24T14:41:55;1.10;;;0.60;;
37777;SDS011;23615;51.506;7.678;2023-04-24T14:44:21;1.90;;;0.67;;
37777;SDS011;23615;51.506;7.678;2023-04-24T14:46:47;2.40;;;0.70;;
37777;SDS011;23615;51.506;7.678;2023-04-24T14:49:13;1.48;;;0.70;;
37777;SDS011;23615;51.506;7.678;2023-04-24T14:51:39;1.80;;;1.00;;
37777;SDS011;23615;51.506;7.678;2023-04-24T14:54:05;1.92;;;1.02;;
37777;SDS011;23615;51.506;7.678;2023-04-24T14:56:31;1.75;;;0.55;;